Aérodrome :
LOGIN :

S'inscrire | Disclaimer

   EN    FR    IT 

 










Légende :    VFR   VFR Marginal   IFR   IFR Intensif   IFR Très Intensif
Visi : 
Plafond : 
>= 8 km
>= 3000ft
5 à 8 km
1000 à 3000 ft
1500m à 5 km
500 à 1000 ft
800 à 1500m
200 à 500 ft
< 800m
< 200 ft
Symboles :   Orages  Brouillard  Fortes neiges  Fortes précipitations  Vent > 20 kt
SIGMETs :   Divers  Orages  Givrage  Turbulence  Onde Orograph.  Cendres Volcan.






- Altitude de l'aérodrome : 512 ft
- Code IATA : URO


LFOP - Rouen Vallée de Seine

DERNIER METAR :
  • 281300Z AUTO 08013KT CAVOK 22/05 Q1029 NOSIG

METARs EXPIRÉS :
  • 281230Z AUTO 06011KT 040V100 CAVOK 22/07 Q1030 NOSIG
  • 281200Z AUTO 06011KT 030V090 CAVOK 22/09 Q1030 NOSIG
  • 281130Z AUTO 05010KT 020V080 CAVOK 21/09 Q1030 NOSIG
  • 281100Z AUTO 04011KT 010V080 CAVOK 20/09 Q1030 NOSIG
  • 281030Z AUTO 07012KT 040V100 CAVOK 20/09 Q1031 NOSIG

TAF TAF LFOP
Valide du 28 à 12h jusqu'au 29 à 12h UTC


281100Z 2812/2912 05012KT CAVOK
ATIS : +33 2 35 80 80 34
Météo : +33 2 32 86 52 80



MET'MAP, la Météo Aéronautique d'un coup d'oeil ! - Copyright ORBIFLY Décembre 2007 - Disclaimer

ORBIFLY MET'MAP TEAM :

Programmation & Développement : Alexandra Zaïnal
Sur une idée originale de : Baudouin d'Aumeries
Assistance à la programmation : Marc-Olivier Méhu
Soutien technique & logistique : Manuel Goepfert

Contact : metmap@orbifly.com




SOURCES & CREDITS :

   NOAA